Etusivu
METAR-TAF:

METAR-TAF

Lentoasemat :

South St. Paul Municipal Airport (Richard E. Fleming Field)

South St. Paul, Minnesota, Yhdysvallat

Leveyspiiri: 44-51-26N, Pituuspiiri: 093-01-58W, korkeus merenpinnasta: 250 m

Tämänhetkinen sää

Tämä raportti tehtiin 21 minuuttia sitten, kello 06.15 UTC
Tuuli 10 kn luoteesta
Lämpötila -5°C
Kosteus 63%
Ilmanpaine 1019 hPa
Näkyvyys: 16.1 km
selkeää

METAR: KSGS 010615Z AUTO 32010KT 10SM CLR M05/M11 A3009 RMK AO2 T10551113

Aika: 00:36 (06:36 UTC)


TAF: puuttuu

Säähavainnot ja -ennusteet yli 4000 lentoasemalta (METAR- ja TAF-raportit).

Käytössä olevat sääasemat on merkitty karttaan keltaisilla ja punaisilla pisteillä.

Aseta hiiri pisteen päälle nähdäksesi sääaseman nimen.

Klikkaa sitten nähdäksesi säähavainnot ja -ennusteet.

Kartan vaihtaminen: klikkaa mustalla rastilla varustettuja vihreitä pisteitä, niin voit zoomata sisään; viivalla varustettua vihreää pistettä, niin voit zoomata ulos tai vihreitä nuolia, niin pääset viereisille kartoille.


METAR-TAF: